sensor_id;sensor_type;location;lat;lon;timestamp;P1;durP1;ratioP1;P2;durP2;ratioP2
31966;SDS011;18496;52.042;6.812;2023-04-24T00:00:10;4.07;;;3.00;;
31966;SDS011;18496;52.042;6.812;2023-04-24T00:02:18;5.53;;;3.10;;
31966;SDS011;18496;52.042;6.812;2023-04-24T00:04:22;8.02;;;3.35;;
31966;SDS011;18496;52.042;6.812;2023-04-24T00:06:29;5.70;;;3.75;;
31966;SDS011;18496;52.042;6.812;2023-04-24T00:08:36;6.75;;;3.70;;
31966;SDS011;18496;52.042;6.812;2023-04-24T00:10:39;6.47;;;4.20;;
31966;SDS011;18496;52.042;6.812;2023-04-24T00:12:43;4.82;;;3.90;;
31966;SDS011;18496;52.042;6.812;2023-04-24T00:14:47;6.88;;;4.00;;
31966;SDS011;18496;52.042;6.812;2023-04-24T00:16:51;6.18;;;3.90;;
31966;SDS011;18496;52.042;6.812;2023-04-24T00:18:55;5.80;;;4.05;;
31966;SDS011;18496;52.042;6.812;2023-04-24T00:20:58;4.50;;;3.63;;
31966;SDS011;18496;52.042;6.812;2023-04-24T00:23:02;8.35;;;3.90;;
31966;SDS011;18496;52.042;6.812;2023-04-24T00:25:06;6.22;;;4.43;;
31966;SDS011;18496;52.042;6.812;2023-04-24T00:27:10;6.00;;;4.38;;
31966;SDS011;18496;52.042;6.812;2023-04-24T00:29:14;5.95;;;4.65;;
31966;SDS011;18496;52.042;6.812;2023-04-24T00:31:17;6.75;;;4.90;;
31966;SDS011;18496;52.042;6.812;2023-04-24T00:33:22;6.53;;;4.90;;
31966;SDS011;18496;52.042;6.812;2023-04-24T00:35:25;7.07;;;5.18;;
31966;SDS011;18496;52.042;6.812;2023-04-24T00:37:29;9.63;;;5.28;;
31966;SDS011;18496;52.042;6.812;2023-04-24T00:39:33;8.23;;;4.95;;
31966;SDS011;18496;52.042;6.812;2023-04-24T00:41:37;8.13;;;5.88;;
31966;SDS011;18496;52.042;6.812;2023-04-24T00:43:40;8.93;;;5.20;;
31966;SDS011;18496;52.042;6.812;2023-04-24T00:45:44;7.75;;;4.78;;
31966;SDS011;18496;52.042;6.812;2023-04-24T00:47:48;10.63;;;5.68;;
31966;SDS011;18496;52.042;6.812;2023-04-24T00:49:53;10.48;;;5.38;;
31966;SDS011;18496;52.042;6.812;2023-04-24T00:51:58;8.52;;;4.40;;
31966;SDS011;18496;52.042;6.812;2023-04-24T00:54:02;8.43;;;4.00;;
31966;SDS011;18496;52.042;6.812;2023-04-24T00:56:06;8.43;;;4.10;;
31966;SDS011;18496;52.042;6.812;2023-04-24T00:58:09;6.82;;;3.80;;
31966;SDS011;18496;52.042;6.812;2023-04-24T01:00:14;5.32;;;3.58;;
31966;SDS011;18496;52.042;6.812;2023-04-24T01:02:19;4.75;;;3.50;;
31966;SDS011;18496;52.042;6.812;2023-04-24T01:04:25;4.80;;;3.42;;
31966;SDS011;18496;52.042;6.812;2023-04-24T01:06:29;5.43;;;2.88;;
31966;SDS011;18496;52.042;6.812;2023-04-24T01:08:34;5.18;;;2.90;;
31966;SDS011;18496;52.042;6.812;2023-04-24T01:10:40;6.03;;;2.40;;
31966;SDS011;18496;52.042;6.812;2023-04-24T01:12:44;3.20;;;2.42;;
31966;SDS011;18496;52.042;6.812;2023-04-24T01:14:49;3.38;;;2.33;;
31966;SDS011;18496;52.042;6.812;2023-04-24T01:16:53;2.47;;;2.25;;
31966;SDS011;18496;52.042;6.812;2023-04-24T01:18:57;3.70;;;2.33;;
31966;SDS011;18496;52.042;6.812;2023-04-24T01:21:02;5.05;;;2.30;;
31966;SDS011;18496;52.042;6.812;2023-04-24T01:23:08;4.53;;;2.53;;
31966;SDS011;18496;52.042;6.812;2023-04-24T01:25:12;3.80;;;2.25;;
31966;SDS011;18496;52.042;6.812;2023-04-24T01:27:16;5.95;;;2.85;;
31966;SDS011;18496;52.042;6.812;2023-04-24T01:29:22;7.85;;;3.30;;
31966;SDS011;18496;52.042;6.812;2023-04-24T01:31:26;4.95;;;3.60;;
31966;SDS011;18496;52.042;6.812;2023-04-24T01:33:29;6.40;;;4.45;;
31966;SDS011;18496;52.042;6.812;2023-04-24T01:35:34;9.23;;;4.38;;
31966;SDS011;18496;52.042;6.812;2023-04-24T01:37:39;6.25;;;4.95;;
31966;SDS011;18496;52.042;6.812;2023-04-24T01:39:43;8.70;;;5.63;;
31966;SDS011;18496;52.042;6.812;2023-04-24T01:41:47;12.35;;;6.30;;
31966;SDS011;18496;52.042;6.812;2023-04-24T01:43:55;10.63;;;6.85;;
31966;SDS011;18496;52.042;6.812;2023-04-24T01:46:01;14.13;;;6.00;;
31966;SDS011;18496;52.042;6.812;2023-04-24T01:48:04;9.63;;;6.13;;
31966;SDS011;18496;52.042;6.812;2023-04-24T01:50:08;10.68;;;5.70;;
31966;SDS011;18496;52.042;6.812;2023-04-24T01:52:13;10.35;;;6.38;;
31966;SDS011;18496;52.042;6.812;2023-04-24T01:54:16;9.55;;;6.22;;
31966;SDS011;18496;52.042;6.812;2023-04-24T01:56:21;11.57;;;7.13;;
31966;SDS011;18496;52.042;6.812;2023-04-24T01:58:25;9.88;;;6.57;;
31966;SDS011;18496;52.042;6.812;2023-04-24T02:00:29;13.43;;;7.60;;
31966;SDS011;18496;52.042;6.812;2023-04-24T02:02:33;11.82;;;6.53;;
31966;SDS011;18496;52.042;6.812;2023-04-24T02:04:37;11.95;;;7.78;;
31966;SDS011;18496;52.042;6.812;2023-04-24T02:06:41;12.85;;;7.68;;
31966;SDS011;18496;52.042;6.812;2023-04-24T02:08:44;16.83;;;7.95;;
31966;SDS011;18496;52.042;6.812;2023-04-24T02:10:48;12.73;;;7.38;;
31966;SDS011;18496;52.042;6.812;2023-04-24T02:12:52;21.50;;;7.63;;
31966;SDS011;18496;52.042;6.812;2023-04-24T02:14:55;10.40;;;7.40;;
31966;SDS011;18496;52.042;6.812;2023-04-24T02:16:59;11.40;;;7.35;;
31966;SDS011;18496;52.042;6.812;2023-04-24T02:19:03;17.63;;;8.70;;
31966;SDS011;18496;52.042;6.812;2023-04-24T02:21:07;12.93;;;7.57;;
31966;SDS011;18496;52.042;6.812;2023-04-24T02:23:12;18.83;;;8.18;;
31966;SDS011;18496;52.042;6.812;2023-04-24T02:25:16;13.55;;;7.18;;
31966;SDS011;18496;52.042;6.812;2023-04-24T02:27:20;14.85;;;7.22;;
31966;SDS011;18496;52.042;6.812;2023-04-24T02:29:24;14.88;;;7.88;;
31966;SDS011;18496;52.042;6.812;2023-04-24T02:31:27;15.88;;;8.25;;
31966;SDS011;18496;52.042;6.812;2023-04-24T02:33:31;15.00;;;8.75;;
31966;SDS011;18496;52.042;6.812;2023-04-24T02:35:35;20.80;;;8.77;;
31966;SDS011;18496;52.042;6.812;2023-04-24T02:37:39;19.17;;;8.80;;
31966;SDS011;18496;52.042;6.812;2023-04-24T02:39:42;18.88;;;9.25;;
31966;SDS011;18496;52.042;6.812;2023-04-24T02:41:46;12.45;;;8.45;;
31966;SDS011;18496;52.042;6.812;2023-04-24T02:43:50;18.20;;;9.23;;
31966;SDS011;18496;52.042;6.812;2023-04-24T02:45:54;18.38;;;10.10;;
31966;SDS011;18496;52.042;6.812;2023-04-24T02:47:57;21.95;;;10.00;;
31966;SDS011;18496;52.042;6.812;2023-04-24T02:50:02;21.05;;;10.13;;
31966;SDS011;18496;52.042;6.812;2023-04-24T02:52:06;26.65;;;9.68;;
31966;SDS011;18496;52.042;6.812;2023-04-24T02:54:10;16.02;;;9.65;;
31966;SDS011;18496;52.042;6.812;2023-04-24T02:56:14;19.50;;;9.73;;
31966;SDS011;18496;52.042;6.812;2023-04-24T02:58:17;22.30;;;10.15;;
31966;SDS011;18496;52.042;6.812;2023-04-24T03:00:23;22.05;;;10.90;;
31966;SDS011;18496;52.042;6.812;2023-04-24T03:02:27;16.92;;;9.95;;
31966;SDS011;18496;52.042;6.812;2023-04-24T03:04:31;22.40;;;10.90;;
31966;SDS011;18496;52.042;6.812;2023-04-24T03:06:35;19.40;;;9.40;;
31966;SDS011;18496;52.042;6.812;2023-04-24T03:08:39;22.23;;;10.57;;
31966;SDS011;18496;52.042;6.812;2023-04-24T03:10:42;20.05;;;10.57;;
31966;SDS011;18496;52.042;6.812;2023-04-24T03:12:46;23.75;;;10.75;;
31966;SDS011;18496;52.042;6.812;2023-04-24T03:14:50;20.65;;;10.90;;
31966;SDS011;18496;52.042;6.812;2023-04-24T03:16:54;23.25;;;12.05;;
31966;SDS011;18496;52.042;6.812;2023-04-24T03:18:58;19.67;;;11.50;;
31966;SDS011;18496;52.042;6.812;2023-04-24T03:21:04;21.90;;;11.27;;
31966;SDS011;18496;52.042;6.812;2023-04-24T03:23:09;24.83;;;12.07;;
31966;SDS011;18496;52.042;6.812;2023-04-24T03:25:14;21.30;;;11.23;;
31966;SDS011;18496;52.042;6.812;2023-04-24T03:27:17;22.40;;;11.82;;
31966;SDS011;18496;52.042;6.812;2023-04-24T03:29:31;25.17;;;12.23;;
31966;SDS011;18496;52.042;6.812;2023-04-24T03:31:35;22.45;;;12.68;;
31966;SDS011;18496;52.042;6.812;2023-04-24T03:33:39;23.25;;;12.45;;
31966;SDS011;18496;52.042;6.812;2023-04-24T03:35:44;26.30;;;12.68;;
31966;SDS011;18496;52.042;6.812;2023-04-24T03:37:49;21.13;;;12.68;;
31966;SDS011;18496;52.042;6.812;2023-04-24T03:40:18;21.35;;;11.77;;
31966;SDS011;18496;52.042;6.812;2023-04-24T03:42:22;26.85;;;13.98;;
31966;SDS011;18496;52.042;6.812;2023-04-24T03:44:29;25.10;;;11.93;;
31966;SDS011;18496;52.042;6.812;2023-04-24T03:46:33;26.30;;;12.98;;
31966;SDS011;18496;52.042;6.812;2023-04-24T03:48:38;22.25;;;12.38;;
31966;SDS011;18496;52.042;6.812;2023-04-24T03:50:43;21.13;;;12.93;;
31966;SDS011;18496;52.042;6.812;2023-04-24T03:52:48;22.25;;;13.48;;
31966;SDS011;18496;52.042;6.812;2023-04-24T03:55:03;22.50;;;12.98;;
31966;SDS011;18496;52.042;6.812;2023-04-24T03:57:12;27.13;;;13.35;;
31966;SDS011;18496;52.042;6.812;2023-04-24T03:59:24;26.10;;;14.02;;
31966;SDS011;18496;52.042;6.812;2023-04-24T04:01:42;22.92;;;13.10;;
31966;SDS011;18496;52.042;6.812;2023-04-24T04:03:51;20.55;;;11.95;;
31966;SDS011;18496;52.042;6.812;2023-04-24T04:05:58;25.77;;;13.23;;
31966;SDS011;18496;52.042;6.812;2023-04-24T04:08:03;25.92;;;12.80;;
31966;SDS011;18496;52.042;6.812;2023-04-24T04:10:07;21.60;;;13.75;;
31966;SDS011;18496;52.042;6.812;2023-04-24T04:12:13;22.00;;;12.85;;
31966;SDS011;18496;52.042;6.812;2023-04-24T04:14:17;23.58;;;13.13;;
31966;SDS011;18496;52.042;6.812;2023-04-24T04:16:24;24.05;;;13.02;;
31966;SDS011;18496;52.042;6.812;2023-04-24T04:18:32;22.27;;;13.63;;
31966;SDS011;18496;52.042;6.812;2023-04-24T04:20:37;30.38;;;14.07;;
31966;SDS011;18496;52.042;6.812;2023-04-24T04:22:41;31.23;;;14.73;;
31966;SDS011;18496;52.042;6.812;2023-04-24T04:24:46;25.98;;;14.40;;
31966;SDS011;18496;52.042;6.812;2023-04-24T04:26:51;28.55;;;13.40;;
31966;SDS011;18496;52.042;6.812;2023-04-24T04:29:05;22.88;;;13.93;;
31966;SDS011;18496;52.042;6.812;2023-04-24T04:31:11;23.50;;;14.15;;
31966;SDS011;18496;52.042;6.812;2023-04-24T04:33:16;24.20;;;13.50;;
31966;SDS011;18496;52.042;6.812;2023-04-24T04:35:20;25.23;;;12.70;;
31966;SDS011;18496;52.042;6.812;2023-04-24T04:37:24;26.88;;;14.98;;
31966;SDS011;18496;52.042;6.812;2023-04-24T04:39:48;24.38;;;14.38;;
31966;SDS011;18496;52.042;6.812;2023-04-24T04:41:56;25.25;;;15.02;;
31966;SDS011;18496;52.042;6.812;2023-04-24T04:44:04;26.85;;;14.73;;
31966;SDS011;18496;52.042;6.812;2023-04-24T04:46:09;29.35;;;15.32;;
31966;SDS011;18496;52.042;6.812;2023-04-24T04:48:14;33.20;;;14.73;;
31966;SDS011;18496;52.042;6.812;2023-04-24T04:50:20;26.92;;;14.13;;
31966;SDS011;18496;52.042;6.812;2023-04-24T04:52:28;31.23;;;14.93;;
31966;SDS011;18496;52.042;6.812;2023-04-24T04:54:48;26.45;;;13.98;;
31966;SDS011;18496;52.042;6.812;2023-04-24T04:56:51;27.63;;;14.95;;
31966;SDS011;18496;52.042;6.812;2023-04-24T04:58:55;23.88;;;13.90;;
31966;SDS011;18496;52.042;6.812;2023-04-24T05:00:59;30.33;;;14.25;;
31966;SDS011;18496;52.042;6.812;2023-04-24T05:03:10;33.72;;;15.85;;
31966;SDS011;18496;52.042;6.812;2023-04-24T05:05:15;30.83;;;15.32;;
31966;SDS011;18496;52.042;6.812;2023-04-24T05:07:20;26.35;;;15.40;;
31966;SDS011;18496;52.042;6.812;2023-04-24T05:09:27;26.48;;;14.73;;
31966;SDS011;18496;52.042;6.812;2023-04-24T05:11:38;26.27;;;14.20;;
31966;SDS011;18496;52.042;6.812;2023-04-24T05:13:42;30.33;;;14.50;;
31966;SDS011;18496;52.042;6.812;2023-04-24T05:15:51;26.38;;;14.52;;
31966;SDS011;18496;52.042;6.812;2023-04-24T05:17:54;28.65;;;14.68;;
31966;SDS011;18496;52.042;6.812;2023-04-24T05:19:59;24.45;;;14.18;;
31966;SDS011;18496;52.042;6.812;2023-04-24T05:22:04;31.20;;;15.98;;
31966;SDS011;18496;52.042;6.812;2023-04-24T05:24:11;29.65;;;15.65;;
31966;SDS011;18496;52.042;6.812;2023-04-24T05:26:34;30.40;;;14.68;;
31966;SDS011;18496;52.042;6.812;2023-04-24T05:28:38;32.60;;;15.32;;
31966;SDS011;18496;52.042;6.812;2023-04-24T05:30:48;27.80;;;15.73;;
31966;SDS011;18496;52.042;6.812;2023-04-24T05:32:53;23.30;;;14.60;;
31966;SDS011;18496;52.042;6.812;2023-04-24T05:34:56;29.35;;;14.93;;
31966;SDS011;18496;52.042;6.812;2023-04-24T05:37:00;27.08;;;14.25;;
31966;SDS011;18496;52.042;6.812;2023-04-24T05:39:04;27.20;;;14.60;;
31966;SDS011;18496;52.042;6.812;2023-04-24T05:41:08;30.33;;;15.02;;
31966;SDS011;18496;52.042;6.812;2023-04-24T05:43:12;31.85;;;14.80;;
31966;SDS011;18496;52.042;6.812;2023-04-24T05:45:16;25.95;;;14.02;;
31966;SDS011;18496;52.042;6.812;2023-04-24T05:47:20;31.25;;;14.52;;
31966;SDS011;18496;52.042;6.812;2023-04-24T05:49:25;31.60;;;15.75;;
31966;SDS011;18496;52.042;6.812;2023-04-24T05:51:29;28.23;;;14.55;;
31966;SDS011;18496;52.042;6.812;2023-04-24T05:53:34;28.55;;;14.88;;
31966;SDS011;18496;52.042;6.812;2023-04-24T05:55:38;29.60;;;14.57;;
31966;SDS011;18496;52.042;6.812;2023-04-24T05:57:43;32.40;;;15.93;;
31966;SDS011;18496;52.042;6.812;2023-04-24T05:59:46;31.58;;;14.98;;
31966;SDS011;18496;52.042;6.812;2023-04-24T06:01:51;28.23;;;14.70;;
31966;SDS011;18496;52.042;6.812;2023-04-24T06:03:57;29.50;;;13.77;;
31966;SDS011;18496;52.042;6.812;2023-04-24T06:06:02;23.45;;;14.07;;
31966;SDS011;18496;52.042;6.812;2023-04-24T06:08:06;23.08;;;13.63;;
31966;SDS011;18496;52.042;6.812;2023-04-24T06:10:14;25.92;;;14.85;;
31966;SDS011;18496;52.042;6.812;2023-04-24T06:12:21;24.27;;;13.15;;
31966;SDS011;18496;52.042;6.812;2023-04-24T06:14:36;23.38;;;12.90;;
31966;SDS011;18496;52.042;6.812;2023-04-24T06:16:51;26.40;;;13.52;;
31966;SDS011;18496;52.042;6.812;2023-04-24T06:19:08;24.60;;;12.43;;
31966;SDS011;18496;52.042;6.812;2023-04-24T06:21:12;25.15;;;13.52;;
31966;SDS011;18496;52.042;6.812;2023-04-24T06:23:16;22.02;;;12.80;;
31966;SDS011;18496;52.042;6.812;2023-04-24T06:25:19;26.55;;;12.38;;
31966;SDS011;18496;52.042;6.812;2023-04-24T06:27:23;29.27;;;12.45;;
31966;SDS011;18496;52.042;6.812;2023-04-24T06:29:27;20.75;;;12.07;;
31966;SDS011;18496;52.042;6.812;2023-04-24T06:31:30;18.20;;;11.20;;
31966;SDS011;18496;52.042;6.812;2023-04-24T06:33:38;22.35;;;11.48;;
31966;SDS011;18496;52.042;6.812;2023-04-24T06:35:41;20.95;;;11.35;;
31966;SDS011;18496;52.042;6.812;2023-04-24T06:37:45;21.10;;;10.13;;
31966;SDS011;18496;52.042;6.812;2023-04-24T06:39:49;16.65;;;10.05;;
31966;SDS011;18496;52.042;6.812;2023-04-24T06:41:53;18.50;;;9.52;;
31966;SDS011;18496;52.042;6.812;2023-04-24T06:43:57;25.98;;;9.45;;
31966;SDS011;18496;52.042;6.812;2023-04-24T06:46:00;16.38;;;10.75;;
31966;SDS011;18496;52.042;6.812;2023-04-24T06:48:06;18.30;;;10.55;;
31966;SDS011;18496;52.042;6.812;2023-04-24T06:50:10;19.75;;;9.93;;
31966;SDS011;18496;52.042;6.812;2023-04-24T06:52:14;17.13;;;9.13;;
31966;SDS011;18496;52.042;6.812;2023-04-24T06:54:18;18.67;;;9.80;;
31966;SDS011;18496;52.042;6.812;2023-04-24T06:56:22;15.48;;;9.32;;
31966;SDS011;18496;52.042;6.812;2023-04-24T06:58:25;17.00;;;10.13;;
31966;SDS011;18496;52.042;6.812;2023-04-24T07:00:29;17.25;;;9.73;;
31966;SDS011;18496;52.042;6.812;2023-04-24T07:02:33;15.63;;;8.93;;
31966;SDS011;18496;52.042;6.812;2023-04-24T07:04:36;15.10;;;8.88;;
31966;SDS011;18496;52.042;6.812;2023-04-24T07:06:40;14.15;;;8.77;;
31966;SDS011;18496;52.042;6.812;2023-04-24T07:08:43;16.23;;;9.18;;
31966;SDS011;18496;52.042;6.812;2023-04-24T07:10:48;14.35;;;8.27;;
31966;SDS011;18496;52.042;6.812;2023-04-24T07:12:52;12.30;;;8.27;;
31966;SDS011;18496;52.042;6.812;2023-04-24T07:14:57;14.15;;;8.05;;
31966;SDS011;18496;52.042;6.812;2023-04-24T07:17:00;11.27;;;7.03;;
31966;SDS011;18496;52.042;6.812;2023-04-24T07:19:06;12.82;;;8.20;;
31966;SDS011;18496;52.042;6.812;2023-04-24T07:21:10;12.40;;;7.40;;
31966;SDS011;18496;52.042;6.812;2023-04-24T07:23:14;13.05;;;7.68;;
31966;SDS011;18496;52.042;6.812;2023-04-24T07:25:18;14.63;;;7.05;;
31966;SDS011;18496;52.042;6.812;2023-04-24T07:27:22;11.02;;;7.20;;
31966;SDS011;18496;52.042;6.812;2023-04-24T07:29:26;12.18;;;7.00;;
31966;SDS011;18496;52.042;6.812;2023-04-24T07:31:30;10.98;;;6.68;;
31966;SDS011;18496;52.042;6.812;2023-04-24T07:33:33;12.45;;;6.50;;
31966;SDS011;18496;52.042;6.812;2023-04-24T07:35:39;9.77;;;6.75;;
31966;SDS011;18496;52.042;6.812;2023-04-24T07:37:42;8.65;;;6.45;;
31966;SDS011;18496;52.042;6.812;2023-04-24T07:39:48;10.68;;;6.57;;
31966;SDS011;18496;52.042;6.812;2023-04-24T07:41:52;10.93;;;6.80;;
31966;SDS011;18496;52.042;6.812;2023-04-24T07:43:56;9.73;;;6.47;;
31966;SDS011;18496;52.042;6.812;2023-04-24T07:45:59;8.88;;;6.53;;
31966;SDS011;18496;52.042;6.812;2023-04-24T07:48:03;11.98;;;6.07;;
31966;SDS011;18496;52.042;6.812;2023-04-24T07:50:07;10.95;;;7.13;;
31966;SDS011;18496;52.042;6.812;2023-04-24T07:52:11;9.88;;;6.07;;
31966;SDS011;18496;52.042;6.812;2023-04-24T07:54:14;11.02;;;6.65;;
31966;SDS011;18496;52.042;6.812;2023-04-24T07:56:18;10.48;;;6.25;;
31966;SDS011;18496;52.042;6.812;2023-04-24T07:58:22;10.02;;;6.15;;
31966;SDS011;18496;52.042;6.812;2023-04-24T08:00:26;11.57;;;6.10;;
31966;SDS011;18496;52.042;6.812;2023-04-24T08:02:29;11.02;;;6.57;;
31966;SDS011;18496;52.042;6.812;2023-04-24T08:04:33;9.75;;;6.03;;
31966;SDS011;18496;52.042;6.812;2023-04-24T08:06:37;10.93;;;6.90;;
31966;SDS011;18496;52.042;6.812;2023-04-24T08:08:40;11.75;;;7.25;;
31966;SDS011;18496;52.042;6.812;2023-04-24T08:10:44;10.32;;;6.60;;
31966;SDS011;18496;52.042;6.812;2023-04-24T08:12:48;10.93;;;6.28;;
31966;SDS011;18496;52.042;6.812;2023-04-24T08:14:51;10.48;;;6.70;;
31966;SDS011;18496;52.042;6.812;2023-04-24T08:16:55;12.15;;;7.03;;
31966;SDS011;18496;52.042;6.812;2023-04-24T08:18:59;12.35;;;7.18;;
31966;SDS011;18496;52.042;6.812;2023-04-24T08:21:05;10.18;;;6.03;;
31966;SDS011;18496;52.042;6.812;2023-04-24T08:23:09;10.80;;;6.78;;
31966;SDS011;18496;52.042;6.812;2023-04-24T08:25:13;11.88;;;6.40;;
31966;SDS011;18496;52.042;6.812;2023-04-24T08:27:16;13.18;;;7.15;;
31966;SDS011;18496;52.042;6.812;2023-04-24T08:29:20;12.38;;;6.78;;
31966;SDS011;18496;52.042;6.812;2023-04-24T08:31:24;9.50;;;6.15;;
31966;SDS011;18496;52.042;6.812;2023-04-24T08:33:29;11.07;;;6.07;;
31966;SDS011;18496;52.042;6.812;2023-04-24T08:35:37;10.88;;;5.72;;
31966;SDS011;18496;52.042;6.812;2023-04-24T08:37:41;9.70;;;5.88;;
31966;SDS011;18496;52.042;6.812;2023-04-24T08:39:45;8.77;;;5.25;;
31966;SDS011;18496;52.042;6.812;2023-04-24T08:41:49;9.68;;;5.72;;
31966;SDS011;18496;52.042;6.812;2023-04-24T08:43:55;7.90;;;5.15;;
31966;SDS011;18496;52.042;6.812;2023-04-24T08:46:01;8.60;;;5.00;;
31966;SDS011;18496;52.042;6.812;2023-04-24T08:48:04;9.27;;;5.63;;
31966;SDS011;18496;52.042;6.812;2023-04-24T08:50:10;9.13;;;5.18;;
31966;SDS011;18496;52.042;6.812;2023-04-24T08:52:15;11.77;;;5.70;;
31966;SDS011;18496;52.042;6.812;2023-04-24T08:54:19;8.05;;;5.15;;
31966;SDS011;18496;52.042;6.812;2023-04-24T08:56:24;7.15;;;4.75;;
31966;SDS011;18496;52.042;6.812;2023-04-24T08:58:28;8.88;;;5.13;;
31966;SDS011;18496;52.042;6.812;2023-04-24T09:00:33;12.93;;;5.53;;
31966;SDS011;18496;52.042;6.812;2023-04-24T09:02:39;8.40;;;5.38;;
31966;SDS011;18496;52.042;6.812;2023-04-24T09:04:46;11.20;;;5.28;;
31966;SDS011;18496;52.042;6.812;2023-04-24T09:06:55;9.45;;;5.38;;
31966;SDS011;18496;52.042;6.812;2023-04-24T09:09:00;6.70;;;4.13;;
31966;SDS011;18496;52.042;6.812;2023-04-24T09:11:04;5.30;;;3.75;;
31966;SDS011;18496;52.042;6.812;2023-04-24T09:13:08;6.80;;;4.00;;
31966;SDS011;18496;52.042;6.812;2023-04-24T09:15:13;5.38;;;3.55;;
31966;SDS011;18496;52.042;6.812;2023-04-24T09:17:17;5.30;;;3.47;;
31966;SDS011;18496;52.042;6.812;2023-04-24T09:19:21;7.30;;;4.40;;
31966;SDS011;18496;52.042;6.812;2023-04-24T09:21:26;8.65;;;4.53;;
31966;SDS011;18496;52.042;6.812;2023-04-24T09:23:38;5.88;;;3.72;;
31966;SDS011;18496;52.042;6.812;2023-04-24T09:25:42;6.18;;;3.60;;
31966;SDS011;18496;52.042;6.812;2023-04-24T09:27:45;4.30;;;3.00;;
31966;SDS011;18496;52.042;6.812;2023-04-24T09:29:53;9.45;;;4.82;;
31966;SDS011;18496;52.042;6.812;2023-04-24T09:31:58;9.70;;;4.82;;
31966;SDS011;18496;52.042;6.812;2023-04-24T09:34:03;7.72;;;5.43;;
31966;SDS011;18496;52.042;6.812;2023-04-24T09:36:10;7.95;;;5.50;;
31966;SDS011;18496;52.042;6.812;2023-04-24T09:38:14;13.35;;;6.35;;
31966;SDS011;18496;52.042;6.812;2023-04-24T09:40:18;11.05;;;7.25;;
31966;SDS011;18496;52.042;6.812;2023-04-24T09:42:25;11.43;;;6.60;;
31966;SDS011;18496;52.042;6.812;2023-04-24T09:44:33;14.15;;;7.72;;
31966;SDS011;18496;52.042;6.812;2023-04-24T09:46:37;14.25;;;8.38;;
31966;SDS011;18496;52.042;6.812;2023-04-24T09:48:41;10.55;;;7.07;;
31966;SDS011;18496;52.042;6.812;2023-04-24T09:50:48;11.88;;;6.72;;
31966;SDS011;18496;52.042;6.812;2023-04-24T09:52:58;11.68;;;7.13;;
31966;SDS011;18496;52.042;6.812;2023-04-24T09:55:10;12.80;;;7.35;;
31966;SDS011;18496;52.042;6.812;2023-04-24T09:57:14;12.95;;;7.55;;
31966;SDS011;18496;52.042;6.812;2023-04-24T09:59:19;12.85;;;7.47;;
31966;SDS011;18496;52.042;6.812;2023-04-24T10:01:32;14.95;;;7.90;;
31966;SDS011;18496;52.042;6.812;2023-04-24T10:03:36;11.10;;;7.32;;
31966;SDS011;18496;52.042;6.812;2023-04-24T10:05:40;14.88;;;7.45;;
31966;SDS011;18496;52.042;6.812;2023-04-24T10:07:46;12.57;;;7.68;;
31966;SDS011;18496;52.042;6.812;2023-04-24T10:09:50;12.82;;;6.65;;
31966;SDS011;18496;52.042;6.812;2023-04-24T10:11:54;27.10;;;14.95;;
31966;SDS011;18496;52.042;6.812;2023-04-24T10:13:58;14.63;;;9.25;;
31966;SDS011;18496;52.042;6.812;2023-04-24T10:16:01;16.58;;;8.45;;
31966;SDS011;18496;52.042;6.812;2023-04-24T10:18:07;13.57;;;8.40;;
31966;SDS011;18496;52.042;6.812;2023-04-24T10:20:12;14.85;;;8.65;;
31966;SDS011;18496;52.042;6.812;2023-04-24T10:22:15;19.40;;;8.18;;
31966;SDS011;18496;52.042;6.812;2023-04-24T10:24:21;14.05;;;7.72;;
31966;SDS011;18496;52.042;6.812;2023-04-24T10:26:24;21.38;;;10.40;;
31966;SDS011;18496;52.042;6.812;2023-04-24T10:28:30;15.88;;;8.63;;
31966;SDS011;18496;52.042;6.812;2023-04-24T10:30:35;25.55;;;11.30;;
31966;SDS011;18496;52.042;6.812;2023-04-24T10:32:38;11.90;;;6.80;;
31966;SDS011;18496;52.042;6.812;2023-04-24T10:34:42;16.52;;;6.63;;
31966;SDS011;18496;52.042;6.812;2023-04-24T10:36:48;10.82;;;5.10;;
31966;SDS011;18496;52.042;6.812;2023-04-24T10:38:55;10.38;;;4.80;;
31966;SDS011;18496;52.042;6.812;2023-04-24T10:41:08;10.35;;;3.92;;
31966;SDS011;18496;52.042;6.812;2023-04-24T10:43:17;6.97;;;4.55;;
31966;SDS011;18496;52.042;6.812;2023-04-24T10:45:22;4.60;;;2.40;;
31966;SDS011;18496;52.042;6.812;2023-04-24T10:47:27;8.50;;;2.95;;
31966;SDS011;18496;52.042;6.812;2023-04-24T10:49:31;4.03;;;2.90;;
31966;SDS011;18496;52.042;6.812;2023-04-24T10:51:51;6.25;;;3.00;;
31966;SDS011;18496;52.042;6.812;2023-04-24T10:53:57;5.72;;;2.97;;
31966;SDS011;18496;52.042;6.812;2023-04-24T10:58:09;11.98;;;3.20;;
31966;SDS011;18496;52.042;6.812;2023-04-24T11:00:20;11.75;;;4.32;;
31966;SDS011;18496;52.042;6.812;2023-04-24T11:02:35;13.18;;;4.55;;
31966;SDS011;18496;52.042;6.812;2023-04-24T11:04:40;14.77;;;4.18;;
31966;SDS011;18496;52.042;6.812;2023-04-24T11:06:45;8.07;;;3.65;;
31966;SDS011;18496;52.042;6.812;2023-04-24T11:08:49;11.18;;;4.15;;
31966;SDS011;18496;52.042;6.812;2023-04-24T11:13:04;17.58;;;4.82;;
31966;SDS011;18496;52.042;6.812;2023-04-24T11:15:10;15.63;;;5.10;;
31966;SDS011;18496;52.042;6.812;2023-04-24T11:17:26;11.65;;;5.20;;
31966;SDS011;18496;52.042;6.812;2023-04-24T11:19:34;25.50;;;5.40;;
31966;SDS011;18496;52.042;6.812;2023-04-24T11:23:45;17.50;;;4.88;;
31966;SDS011;18496;52.042;6.812;2023-04-24T11:26:09;20.77;;;5.07;;
31966;SDS011;18496;52.042;6.812;2023-04-24T11:28:17;13.73;;;5.43;;
31966;SDS011;18496;52.042;6.812;2023-04-24T11:30:21;14.38;;;5.75;;
31966;SDS011;18496;52.042;6.812;2023-04-24T11:34:32;10.48;;;4.15;;
31966;SDS011;18496;52.042;6.812;2023-04-24T11:36:35;9.95;;;3.97;;
31966;SDS011;18496;52.042;6.812;2023-04-24T11:38:39;8.70;;;4.15;;
31966;SDS011;18496;52.042;6.812;2023-04-24T11:40:43;6.32;;;2.92;;
31966;SDS011;18496;52.042;6.812;2023-04-24T11:42:49;10.45;;;3.33;;
31966;SDS011;18496;52.042;6.812;2023-04-24T11:44:55;8.60;;;3.97;;
31966;SDS011;18496;52.042;6.812;2023-04-24T11:46:59;15.38;;;4.78;;
31966;SDS011;18496;52.042;6.812;2023-04-24T11:49:02;10.50;;;3.70;;
31966;SDS011;18496;52.042;6.812;2023-04-24T11:51:06;11.80;;;3.53;;
31966;SDS011;18496;52.042;6.812;2023-04-24T11:53:10;8.60;;;3.28;;
31966;SDS011;18496;52.042;6.812;2023-04-24T11:57:19;11.25;;;4.45;;
31966;SDS011;18496;52.042;6.812;2023-04-24T11:59:24;12.25;;;4.43;;
31966;SDS011;18496;52.042;6.812;2023-04-24T12:01:28;11.73;;;4.20;;
31966;SDS011;18496;52.042;6.812;2023-04-24T12:03:32;13.43;;;4.18;;
31966;SDS011;18496;52.042;6.812;2023-04-24T12:05:35;10.95;;;4.05;;
31966;SDS011;18496;52.042;6.812;2023-04-24T12:07:42;11.40;;;4.95;;
31966;SDS011;18496;52.042;6.812;2023-04-24T12:09:47;14.68;;;3.80;;
31966;SDS011;18496;52.042;6.812;2023-04-24T12:11:55;10.55;;;3.67;;
31966;SDS011;18496;52.042;6.812;2023-04-24T12:14:11;14.40;;;3.85;;
31966;SDS011;18496;52.042;6.812;2023-04-24T12:16:15;6.97;;;2.92;;
31966;SDS011;18496;52.042;6.812;2023-04-24T12:18:21;9.82;;;3.28;;
31966;SDS011;18496;52.042;6.812;2023-04-24T12:20:27;7.95;;;3.42;;
31966;SDS011;18496;52.042;6.812;2023-04-24T12:22:45;10.40;;;3.00;;
31966;SDS011;18496;52.042;6.812;2023-04-24T12:24:56;9.93;;;2.72;;
31966;SDS011;18496;52.042;6.812;2023-04-24T12:27:04;6.53;;;2.65;;
31966;SDS011;18496;52.042;6.812;2023-04-24T12:29:08;8.95;;;2.72;;
31966;SDS011;18496;52.042;6.812;2023-04-24T12:31:11;17.75;;;3.08;;
31966;SDS011;18496;52.042;6.812;2023-04-24T12:33:19;7.05;;;2.35;;